sensor_id;sensor_type;location;lat;lon;timestamp;temperature;humidity
25504;DHT22;13410;52.114;5.718;2023-02-03T00:01:49;13.00;99.90
25504;DHT22;13410;52.114;5.718;2023-02-03T00:04:14;13.20;99.90
25504;DHT22;13410;52.114;5.718;2023-02-03T00:06:40;13.10;99.90
25504;DHT22;13410;52.114;5.718;2023-02-03T00:09:06;13.00;99.90
25504;DHT22;13410;52.114;5.718;2023-02-03T00:11:31;12.90;99.90
25504;DHT22;13410;52.114;5.718;2023-02-03T00:13:57;12.80;99.90
25504;DHT22;13410;52.114;5.718;2023-02-03T00:16:23;12.80;99.90
25504;DHT22;13410;52.114;5.718;2023-02-03T00:18:48;12.90;99.90
25504;DHT22;13410;52.114;5.718;2023-02-03T00:21:14;12.90;99.90
25504;DHT22;13410;52.114;5.718;2023-02-03T00:23:40;12.80;99.90
25504;DHT22;13410;52.114;5.718;2023-02-03T00:26:12;12.60;99.90
25504;DHT22;13410;52.114;5.718;2023-02-03T00:28:37;12.50;99.90
25504;DHT22;13410;52.114;5.718;2023-02-03T00:31:03;12.50;99.90
25504;DHT22;13410;52.114;5.718;2023-02-03T00:33:29;12.50;99.90
25504;DHT22;13410;52.114;5.718;2023-02-03T00:35:55;12.50;99.90
25504;DHT22;13410;52.114;5.718;2023-02-03T00:38:20;12.50;99.90
25504;DHT22;13410;52.114;5.718;2023-02-03T00:40:52;12.70;99.90
25504;DHT22;13410;52.114;5.718;2023-02-03T00:43:19;12.80;99.90
25504;DHT22;13410;52.114;5.718;2023-02-03T00:45:44;12.70;99.90
25504;DHT22;13410;52.114;5.718;2023-02-03T00:48:10;12.70;99.90
25504;DHT22;13410;52.114;5.718;2023-02-03T00:50:35;12.60;99.90
25504;DHT22;13410;52.114;5.718;2023-02-03T00:53:01;12.60;99.90
25504;DHT22;13410;52.114;5.718;2023-02-03T00:55:26;12.60;99.90
25504;DHT22;13410;52.114;5.718;2023-02-03T00:57:52;12.70;99.90
25504;DHT22;13410;52.114;5.718;2023-02-03T01:00:18;12.60;99.90
25504;DHT22;13410;52.114;5.718;2023-02-03T01:02:45;12.70;99.90
25504;DHT22;13410;52.114;5.718;2023-02-03T01:05:11;12.80;99.90
25504;DHT22;13410;52.114;5.718;2023-02-03T01:07:37;12.60;99.90
25504;DHT22;13410;52.114;5.718;2023-02-03T01:10:03;12.70;99.90
25504;DHT22;13410;52.114;5.718;2023-02-03T01:12:30;12.70;99.90
25504;DHT22;13410;52.114;5.718;2023-02-03T01:14:55;12.70;99.90
25504;DHT22;13410;52.114;5.718;2023-02-03T01:17:21;12.80;99.90
25504;DHT22;13410;52.114;5.718;2023-02-03T01:19:47;12.90;99.90
25504;DHT22;13410;52.114;5.718;2023-02-03T01:22:12;12.70;99.90
25504;DHT22;13410;52.114;5.718;2023-02-03T01:24:38;12.80;99.90
25504;DHT22;13410;52.114;5.718;2023-02-03T01:27:03;12.80;99.90
25504;DHT22;13410;52.114;5.718;2023-02-03T01:29:30;12.90;99.90
25504;DHT22;13410;52.114;5.718;2023-02-03T01:31:56;12.80;99.90
25504;DHT22;13410;52.114;5.718;2023-02-03T01:34:21;12.80;99.90
25504;DHT22;13410;52.114;5.718;2023-02-03T01:36:47;12.60;99.90
25504;DHT22;13410;52.114;5.718;2023-02-03T01:39:13;12.60;99.90
25504;DHT22;13410;52.114;5.718;2023-02-03T01:41:39;12.60;99.90
25504;DHT22;13410;52.114;5.718;2023-02-03T01:44:34;12.60;99.90
25504;DHT22;13410;52.114;5.718;2023-02-03T01:46:59;12.30;99.90
25504;DHT22;13410;52.114;5.718;2023-02-03T01:49:29;12.30;99.90
25504;DHT22;13410;52.114;5.718;2023-02-03T01:51:55;12.50;99.90
25504;DHT22;13410;52.114;5.718;2023-02-03T01:54:25;12.60;99.90
25504;DHT22;13410;52.114;5.718;2023-02-03T01:56:55;12.60;99.90
25504;DHT22;13410;52.114;5.718;2023-02-03T01:59:23;12.60;99.90
25504;DHT22;13410;52.114;5.718;2023-02-03T02:01:49;12.60;99.90
25504;DHT22;13410;52.114;5.718;2023-02-03T02:04:16;12.70;99.90
25504;DHT22;13410;52.114;5.718;2023-02-03T02:06:41;12.70;99.90
25504;DHT22;13410;52.114;5.718;2023-02-03T02:09:07;12.60;99.90
25504;DHT22;13410;52.114;5.718;2023-02-03T02:11:33;12.70;99.90
25504;DHT22;13410;52.114;5.718;2023-02-03T02:14:00;12.70;99.90
25504;DHT22;13410;52.114;5.718;2023-02-03T02:19:33;12.70;99.90
25504;DHT22;13410;52.114;5.718;2023-02-03T02:22:27;12.70;99.90
25504;DHT22;13410;52.114;5.718;2023-02-03T02:31:05;12.60;99.90
25504;DHT22;13410;52.114;5.718;2023-02-03T02:33:45;12.70;99.90
25504;DHT22;13410;52.114;5.718;2023-02-03T02:42:22;12.70;99.90
25504;DHT22;13410;52.114;5.718;2023-02-03T02:44:55;12.60;99.90
25504;DHT22;13410;52.114;5.718;2023-02-03T02:47:23;12.70;99.90
25504;DHT22;13410;52.114;5.718;2023-02-03T02:52:16;12.70;99.90
25504;DHT22;13410;52.114;5.718;2023-02-03T02:54:46;12.70;99.90
25504;DHT22;13410;52.114;5.718;2023-02-03T02:57:14;12.60;99.90
25504;DHT22;13410;52.114;5.718;2023-02-03T02:59:40;12.60;99.90
25504;DHT22;13410;52.114;5.718;2023-02-03T03:02:08;12.70;99.90
25504;DHT22;13410;52.114;5.718;2023-02-03T03:04:35;12.70;99.90
25504;DHT22;13410;52.114;5.718;2023-02-03T03:07:06;12.90;99.90
25504;DHT22;13410;52.114;5.718;2023-02-03T03:09:37;13.00;99.90
25504;DHT22;13410;52.114;5.718;2023-02-03T03:12:19;13.10;99.90
25504;DHT22;13410;52.114;5.718;2023-02-03T03:14:49;13.00;99.90
25504;DHT22;13410;52.114;5.718;2023-02-03T03:17:22;12.90;99.90
25504;DHT22;13410;52.114;5.718;2023-02-03T03:19:53;12.90;99.90
25504;DHT22;13410;52.114;5.718;2023-02-03T03:22:24;12.80;99.90
25504;DHT22;13410;52.114;5.718;2023-02-03T03:24:57;12.90;99.90
25504;DHT22;13410;52.114;5.718;2023-02-03T03:27:28;12.80;99.90
25504;DHT22;13410;52.114;5.718;2023-02-03T03:30:01;12.80;99.90
25504;DHT22;13410;52.114;5.718;2023-02-03T03:32:27;12.80;99.90
25504;DHT22;13410;52.114;5.718;2023-02-03T03:35:12;13.00;99.90
25504;DHT22;13410;52.114;5.718;2023-02-03T03:37:43;13.00;99.90
25504;DHT22;13410;52.114;5.718;2023-02-03T03:40:19;13.10;99.90
25504;DHT22;13410;52.114;5.718;2023-02-03T03:42:59;13.20;99.90
25504;DHT22;13410;52.114;5.718;2023-02-03T03:45:36;13.10;99.90
25504;DHT22;13410;52.114;5.718;2023-02-03T03:48:50;13.20;99.90
25504;DHT22;13410;52.114;5.718;2023-02-03T03:51:01;13.30;99.90
25504;DHT22;13410;52.114;5.718;2023-02-03T03:53:29;13.20;99.90
25504;DHT22;13410;52.114;5.718;2023-02-03T03:55:56;13.10;99.90
25504;DHT22;13410;52.114;5.718;2023-02-03T03:58:29;13.00;99.90
25504;DHT22;13410;52.114;5.718;2023-02-03T04:00:58;13.00;99.90
25504;DHT22;13410;52.114;5.718;2023-02-03T04:03:46;12.80;99.90
25504;DHT22;13410;52.114;5.718;2023-02-03T04:06:13;12.80;99.90
25504;DHT22;13410;52.114;5.718;2023-02-03T04:08:38;12.70;99.90
25504;DHT22;13410;52.114;5.718;2023-02-03T04:11:05;12.80;99.90
25504;DHT22;13410;52.114;5.718;2023-02-03T04:13:30;12.70;99.90
25504;DHT22;13410;52.114;5.718;2023-02-03T04:15:56;12.70;99.90
25504;DHT22;13410;52.114;5.718;2023-02-03T04:18:21;12.80;99.90
25504;DHT22;13410;52.114;5.718;2023-02-03T04:20:47;12.80;99.90
25504;DHT22;13410;52.114;5.718;2023-02-03T04:23:15;12.80;99.90
25504;DHT22;13410;52.114;5.718;2023-02-03T04:25:41;12.60;99.90
25504;DHT22;13410;52.114;5.718;2023-02-03T04:28:07;12.70;99.90
25504;DHT22;13410;52.114;5.718;2023-02-03T04:30:33;12.60;99.90
25504;DHT22;13410;52.114;5.718;2023-02-03T04:32:58;12.60;99.90
25504;DHT22;13410;52.114;5.718;2023-02-03T04:35:24;12.60;99.90
25504;DHT22;13410;52.114;5.718;2023-02-03T04:37:50;12.70;99.90
25504;DHT22;13410;52.114;5.718;2023-02-03T04:40:16;12.60;99.90
25504;DHT22;13410;52.114;5.718;2023-02-03T04:42:41;12.50;99.90
25504;DHT22;13410;52.114;5.718;2023-02-03T04:45:08;12.50;99.90
25504;DHT22;13410;52.114;5.718;2023-02-03T04:47:35;12.50;99.90
25504;DHT22;13410;52.114;5.718;2023-02-03T04:50:00;12.60;99.90
25504;DHT22;13410;52.114;5.718;2023-02-03T04:52:26;12.80;99.90
25504;DHT22;13410;52.114;5.718;2023-02-03T04:54:52;12.80;99.90
25504;DHT22;13410;52.114;5.718;2023-02-03T04:57:17;12.70;99.90
25504;DHT22;13410;52.114;5.718;2023-02-03T04:59:43;12.80;99.90
25504;DHT22;13410;52.114;5.718;2023-02-03T05:02:09;12.90;99.90
25504;DHT22;13410;52.114;5.718;2023-02-03T05:04:34;12.90;99.90
25504;DHT22;13410;52.114;5.718;2023-02-03T05:07:00;13.00;99.90
25504;DHT22;13410;52.114;5.718;2023-02-03T05:09:27;12.90;99.90
25504;DHT22;13410;52.114;5.718;2023-02-03T05:11:53;13.00;99.90
25504;DHT22;13410;52.114;5.718;2023-02-03T05:14:19;13.00;99.90
25504;DHT22;13410;52.114;5.718;2023-02-03T05:16:45;13.00;99.90
25504;DHT22;13410;52.114;5.718;2023-02-03T05:19:10;13.10;99.90
25504;DHT22;13410;52.114;5.718;2023-02-03T05:21:36;12.90;99.90
25504;DHT22;13410;52.114;5.718;2023-02-03T05:24:02;12.90;99.90
25504;DHT22;13410;52.114;5.718;2023-02-03T05:26:31;12.80;99.90
25504;DHT22;13410;52.114;5.718;2023-02-03T05:28:56;12.90;99.90
25504;DHT22;13410;52.114;5.718;2023-02-03T05:31:22;13.00;99.90
25504;DHT22;13410;52.114;5.718;2023-02-03T05:33:47;12.80;99.90
25504;DHT22;13410;52.114;5.718;2023-02-03T05:36:13;12.90;99.90
25504;DHT22;13410;52.114;5.718;2023-02-03T05:38:38;12.90;99.90
25504;DHT22;13410;52.114;5.718;2023-02-03T05:41:04;12.80;99.90
25504;DHT22;13410;52.114;5.718;2023-02-03T05:43:48;12.70;99.90
25504;DHT22;13410;52.114;5.718;2023-02-03T05:46:14;12.80;99.90
25504;DHT22;13410;52.114;5.718;2023-02-03T05:48:39;12.70;99.90
25504;DHT22;13410;52.114;5.718;2023-02-03T05:51:05;12.90;99.90
25504;DHT22;13410;52.114;5.718;2023-02-03T05:53:30;13.10;99.90
25504;DHT22;13410;52.114;5.718;2023-02-03T05:55:56;13.00;99.90
25504;DHT22;13410;52.114;5.718;2023-02-03T05:58:21;12.90;99.90
25504;DHT22;13410;52.114;5.718;2023-02-03T06:00:47;12.80;99.90
25504;DHT22;13410;52.114;5.718;2023-02-03T06:03:12;12.60;99.90
25504;DHT22;13410;52.114;5.718;2023-02-03T06:05:38;12.90;99.90
25504;DHT22;13410;52.114;5.718;2023-02-03T06:08:06;12.90;99.90
25504;DHT22;13410;52.114;5.718;2023-02-03T06:10:32;13.00;99.90
25504;DHT22;13410;52.114;5.718;2023-02-03T06:12:57;13.00;99.90
25504;DHT22;13410;52.114;5.718;2023-02-03T06:15:23;13.20;99.90
25504;DHT22;13410;52.114;5.718;2023-02-03T06:17:49;13.20;99.90
25504;DHT22;13410;52.114;5.718;2023-02-03T06:20:16;12.90;99.90
25504;DHT22;13410;52.114;5.718;2023-02-03T06:22:43;13.00;99.90
25504;DHT22;13410;52.114;5.718;2023-02-03T06:25:09;12.90;99.90
25504;DHT22;13410;52.114;5.718;2023-02-03T06:27:35;12.80;99.90
25504;DHT22;13410;52.114;5.718;2023-02-03T06:30:01;12.80;99.90
25504;DHT22;13410;52.114;5.718;2023-02-03T06:32:27;12.80;99.90
25504;DHT22;13410;52.114;5.718;2023-02-03T06:34:53;12.90;99.90
25504;DHT22;13410;52.114;5.718;2023-02-03T06:37:18;13.10;99.90
25504;DHT22;13410;52.114;5.718;2023-02-03T06:39:44;13.20;99.90
25504;DHT22;13410;52.114;5.718;2023-02-03T06:42:09;13.00;99.90
25504;DHT22;13410;52.114;5.718;2023-02-03T06:44:35;13.10;99.90
25504;DHT22;13410;52.114;5.718;2023-02-03T06:47:03;13.10;99.90
25504;DHT22;13410;52.114;5.718;2023-02-03T06:49:29;13.10;99.90
25504;DHT22;13410;52.114;5.718;2023-02-03T06:51:55;12.90;99.90
25504;DHT22;13410;52.114;5.718;2023-02-03T06:54:21;13.00;99.90
25504;DHT22;13410;52.114;5.718;2023-02-03T06:56:46;13.20;99.90
25504;DHT22;13410;52.114;5.718;2023-02-03T06:59:12;13.00;99.90
25504;DHT22;13410;52.114;5.718;2023-02-03T07:01:38;12.60;99.90
25504;DHT22;13410;52.114;5.718;2023-02-03T07:04:04;12.80;99.90
25504;DHT22;13410;52.114;5.718;2023-02-03T07:06:30;12.90;99.90
25504;DHT22;13410;52.114;5.718;2023-02-03T07:09:04;12.80;99.90
25504;DHT22;13410;52.114;5.718;2023-02-03T07:11:30;12.80;99.90
25504;DHT22;13410;52.114;5.718;2023-02-03T07:13:56;12.80;99.90
25504;DHT22;13410;52.114;5.718;2023-02-03T07:16:22;12.90;99.90
25504;DHT22;13410;52.114;5.718;2023-02-03T07:18:48;12.80;99.90
25504;DHT22;13410;52.114;5.718;2023-02-03T07:21:14;12.70;99.90
25504;DHT22;13410;52.114;5.718;2023-02-03T07:23:40;12.80;99.90
25504;DHT22;13410;52.114;5.718;2023-02-03T07:26:06;12.70;99.90
25504;DHT22;13410;52.114;5.718;2023-02-03T07:28:33;12.70;99.90
25504;DHT22;13410;52.114;5.718;2023-02-03T07:30:59;12.80;99.90
25504;DHT22;13410;52.114;5.718;2023-02-03T07:33:26;12.90;99.90
25504;DHT22;13410;52.114;5.718;2023-02-03T07:35:56;12.80;99.90
25504;DHT22;13410;52.114;5.718;2023-02-03T07:38:23;12.90;99.90
25504;DHT22;13410;52.114;5.718;2023-02-03T07:40:49;12.80;99.90
25504;DHT22;13410;52.114;5.718;2023-02-03T07:43:15;12.80;99.90
25504;DHT22;13410;52.114;5.718;2023-02-03T07:45:41;12.80;99.90
25504;DHT22;13410;52.114;5.718;2023-02-03T07:48:06;12.90;99.90
25504;DHT22;13410;52.114;5.718;2023-02-03T07:50:32;12.80;99.90
25504;DHT22;13410;52.114;5.718;2023-02-03T07:52:58;12.80;99.90
25504;DHT22;13410;52.114;5.718;2023-02-03T07:55:24;12.80;99.90
25504;DHT22;13410;52.114;5.718;2023-02-03T07:57:51;12.70;99.90
25504;DHT22;13410;52.114;5.718;2023-02-03T08:00:17;12.80;99.90
25504;DHT22;13410;52.114;5.718;2023-02-03T08:02:43;12.80;99.90
25504;DHT22;13410;52.114;5.718;2023-02-03T08:05:10;12.70;99.90
25504;DHT22;13410;52.114;5.718;2023-02-03T08:07:36;12.80;99.90
25504;DHT22;13410;52.114;5.718;2023-02-03T08:10:02;12.80;99.90
25504;DHT22;13410;52.114;5.718;2023-02-03T08:12:28;12.90;99.90
25504;DHT22;13410;52.114;5.718;2023-02-03T08:14:54;12.90;99.90
25504;DHT22;13410;52.114;5.718;2023-02-03T08:17:19;12.80;99.90
25504;DHT22;13410;52.114;5.718;2023-02-03T08:19:45;12.90;99.90
25504;DHT22;13410;52.114;5.718;2023-02-03T08:22:10;12.90;99.90
25504;DHT22;13410;52.114;5.718;2023-02-03T08:24:42;13.00;99.90
25504;DHT22;13410;52.114;5.718;2023-02-03T08:27:11;12.90;99.90
25504;DHT22;13410;52.114;5.718;2023-02-03T08:29:37;13.00;99.90
25504;DHT22;13410;52.114;5.718;2023-02-03T08:32:03;13.20;99.90
25504;DHT22;13410;52.114;5.718;2023-02-03T08:34:28;13.20;99.90
25504;DHT22;13410;52.114;5.718;2023-02-03T08:36:54;13.20;99.90
25504;DHT22;13410;52.114;5.718;2023-02-03T08:39:20;13.20;99.90
25504;DHT22;13410;52.114;5.718;2023-02-03T08:41:45;13.30;99.90
25504;DHT22;13410;52.114;5.718;2023-02-03T08:44:11;13.30;99.90
25504;DHT22;13410;52.114;5.718;2023-02-03T08:46:36;13.10;99.90
25504;DHT22;13410;52.114;5.718;2023-02-03T08:49:07;12.90;99.90
25504;DHT22;13410;52.114;5.718;2023-02-03T08:51:33;12.80;99.90
25504;DHT22;13410;52.114;5.718;2023-02-03T08:53:59;13.00;99.90
25504;DHT22;13410;52.114;5.718;2023-02-03T08:56:24;12.90;99.90
25504;DHT22;13410;52.114;5.718;2023-02-03T08:58:51;12.80;99.90
25504;DHT22;13410;52.114;5.718;2023-02-03T09:01:16;13.00;99.90
25504;DHT22;13410;52.114;5.718;2023-02-03T09:03:42;13.10;99.90
25504;DHT22;13410;52.114;5.718;2023-02-03T09:06:08;13.20;99.90
25504;DHT22;13410;52.114;5.718;2023-02-03T09:08:37;13.20;99.90
25504;DHT22;13410;52.114;5.718;2023-02-03T09:11:10;13.20;99.90
25504;DHT22;13410;52.114;5.718;2023-02-03T09:13:36;13.20;99.90
25504;DHT22;13410;52.114;5.718;2023-02-03T09:16:04;13.30;99.90
25504;DHT22;13410;52.114;5.718;2023-02-03T09:18:30;13.10;99.90
25504;DHT22;13410;52.114;5.718;2023-02-03T09:21:00;12.80;99.90
25504;DHT22;13410;52.114;5.718;2023-02-03T09:23:26;13.00;99.90
25504;DHT22;13410;52.114;5.718;2023-02-03T09:25:52;13.00;99.90
25504;DHT22;13410;52.114;5.718;2023-02-03T09:28:17;13.00;99.90
25504;DHT22;13410;52.114;5.718;2023-02-03T09:30:43;13.10;99.90
25504;DHT22;13410;52.114;5.718;2023-02-03T09:33:08;13.30;99.90
25504;DHT22;13410;52.114;5.718;2023-02-03T09:35:34;13.40;99.90
25504;DHT22;13410;52.114;5.718;2023-02-03T09:38:00;13.30;99.90
25504;DHT22;13410;52.114;5.718;2023-02-03T09:40:36;13.40;99.90
25504;DHT22;13410;52.114;5.718;2023-02-03T09:43:23;13.20;99.90
25504;DHT22;13410;52.114;5.718;2023-02-03T09:45:52;13.30;99.90
25504;DHT22;13410;52.114;5.718;2023-02-03T09:48:23;13.40;99.90
25504;DHT22;13410;52.114;5.718;2023-02-03T09:50:53;13.40;99.90
25504;DHT22;13410;52.114;5.718;2023-02-03T09:53:32;13.20;99.90
25504;DHT22;13410;52.114;5.718;2023-02-03T09:55:59;13.30;99.90
25504;DHT22;13410;52.114;5.718;2023-02-03T09:58:27;13.30;99.90
25504;DHT22;13410;52.114;5.718;2023-02-03T10:00:55;13.40;99.90
25504;DHT22;13410;52.114;5.718;2023-02-03T10:06:07;13.20;99.90
25504;DHT22;13410;52.114;5.718;2023-02-03T10:19:43;13.50;99.90
25504;DHT22;13410;52.114;5.718;2023-02-03T10:22:15;13.50;99.90
25504;DHT22;13410;52.114;5.718;2023-02-03T10:25:18;13.70;99.90
25504;DHT22;13410;52.114;5.718;2023-02-03T10:27:46;13.80;99.90
25504;DHT22;13410;52.114;5.718;2023-02-03T10:30:25;13.80;99.90
25504;DHT22;13410;52.114;5.718;2023-02-03T10:32:59;13.70;99.90
25504;DHT22;13410;52.114;5.718;2023-02-03T10:36:22;13.70;99.90
25504;DHT22;13410;52.114;5.718;2023-02-03T10:40:56;13.30;99.90
25504;DHT22;13410;52.114;5.718;2023-02-03T10:43:23;13.30;99.90
25504;DHT22;13410;52.114;5.718;2023-02-03T10:46:07;13.40;99.90
25504;DHT22;13410;52.114;5.718;2023-02-03T10:48:33;13.60;99.90
25504;DHT22;13410;52.114;5.718;2023-02-03T10:51:01;13.70;99.90
25504;DHT22;13410;52.114;5.718;2023-02-03T10:53:36;13.60;99.90
25504;DHT22;13410;52.114;5.718;2023-02-03T10:56:12;13.50;99.90
25504;DHT22;13410;52.114;5.718;2023-02-03T10:58:45;13.50;99.90
25504;DHT22;13410;52.114;5.718;2023-02-03T11:01:13;13.50;99.90
25504;DHT22;13410;52.114;5.718;2023-02-03T11:04:00;13.40;99.90
25504;DHT22;13410;52.114;5.718;2023-02-03T11:06:27;13.20;99.90
25504;DHT22;13410;52.114;5.718;2023-02-03T11:08:55;13.10;99.90
25504;DHT22;13410;52.114;5.718;2023-02-03T11:14:10;13.10;99.90
25504;DHT22;13410;52.114;5.718;2023-02-03T11:16:37;13.00;99.90
25504;DHT22;13410;52.114;5.718;2023-02-03T11:19:15;13.00;99.90
25504;DHT22;13410;52.114;5.718;2023-02-03T11:21:44;13.00;99.90
25504;DHT22;13410;52.114;5.718;2023-02-03T11:24:18;13.20;99.90
25504;DHT22;13410;52.114;5.718;2023-02-03T11:26:56;13.40;99.90
25504;DHT22;13410;52.114;5.718;2023-02-03T11:29:30;13.40;99.90
25504;DHT22;13410;52.114;5.718;2023-02-03T11:31:58;13.40;99.90
25504;DHT22;13410;52.114;5.718;2023-02-03T11:34:31;13.30;99.90
25504;DHT22;13410;52.114;5.718;2023-02-03T11:37:25;13.30;99.90
25504;DHT22;13410;52.114;5.718;2023-02-03T11:42:34;13.30;99.90
25504;DHT22;13410;52.114;5.718;2023-02-03T11:47:41;13.30;99.90
25504;DHT22;13410;52.114;5.718;2023-02-03T11:50:28;13.30;99.90
25504;DHT22;13410;52.114;5.718;2023-02-03T11:55:45;13.40;99.90
25504;DHT22;13410;52.114;5.718;2023-02-03T11:58:21;13.30;99.90
25504;DHT22;13410;52.114;5.718;2023-02-03T12:01:07;13.30;99.90
25504;DHT22;13410;52.114;5.718;2023-02-03T12:03:55;13.40;99.90
25504;DHT22;13410;52.114;5.718;2023-02-03T12:06:32;13.50;99.90
25504;DHT22;13410;52.114;5.718;2023-02-03T12:12:08;13.00;99.90
25504;DHT22;13410;52.114;5.718;2023-02-03T12:30:43;12.20;99.90
25504;DHT22;13410;52.114;5.718;2023-02-03T12:33:16;12.10;99.90
25504;DHT22;13410;52.114;5.718;2023-02-03T12:36:04;12.00;99.90
25504;DHT22;13410;52.114;5.718;2023-02-03T12:38:40;11.60;99.90
25504;DHT22;13410;52.114;5.718;2023-02-03T12:41:12;11.50;99.90
25504;DHT22;13410;52.114;5.718;2023-02-03T12:43:42;11.50;99.90
25504;DHT22;13410;52.114;5.718;2023-02-03T12:46:34;11.60;99.90
25504;DHT22;13410;52.114;5.718;2023-02-03T12:49:08;11.70;99.90
25504;DHT22;13410;52.114;5.718;2023-02-03T12:52:25;11.80;99.90
25504;DHT22;13410;52.114;5.718;2023-02-03T12:55:15;11.80;99.90
25504;DHT22;13410;52.114;5.718;2023-02-03T12:57:59;12.10;99.90
25504;DHT22;13410;52.114;5.718;2023-02-03T13:03:38;12.00;99.90
25504;DHT22;13410;52.114;5.718;2023-02-03T13:06:16;12.20;99.90
25504;DHT22;13410;52.114;5.718;2023-02-03T13:08:53;12.20;99.90
25504;DHT22;13410;52.114;5.718;2023-02-03T13:11:50;12.10;99.90
25504;DHT22;13410;52.114;5.718;2023-02-03T13:17:17;12.00;99.90
25504;DHT22;13410;52.114;5.718;2023-02-03T13:20:12;12.00;99.90
25504;DHT22;13410;52.114;5.718;2023-02-03T13:22:39;12.20;99.90
25504;DHT22;13410;52.114;5.718;2023-02-03T13:25:31;12.30;99.90
25504;DHT22;13410;52.114;5.718;2023-02-03T13:38:36;12.20;99.90
25504;DHT22;13410;52.114;5.718;2023-02-03T13:41:24;12.20;99.90
25504;DHT22;13410;52.114;5.718;2023-02-03T13:43:53;12.40;99.90
25504;DHT22;13410;52.114;5.718;2023-02-03T13:46:35;12.40;99.90
25504;DHT22;13410;52.114;5.718;2023-02-03T13:49:02;12.50;99.90
25504;DHT22;13410;52.114;5.718;2023-02-03T13:51:32;12.40;99.90
25504;DHT22;13410;52.114;5.718;2023-02-03T13:54:01;12.50;99.90
25504;DHT22;13410;52.114;5.718;2023-02-03T13:56:28;12.60;99.90
25504;DHT22;13410;52.114;5.718;2023-02-03T14:01:38;12.40;99.90
25504;DHT22;13410;52.114;5.718;2023-02-03T14:06:56;12.50;99.90
25504;DHT22;13410;52.114;5.718;2023-02-03T14:14:56;12.60;99.90
25504;DHT22;13410;52.114;5.718;2023-02-03T14:19:59;12.70;99.90
25504;DHT22;13410;52.114;5.718;2023-02-03T14:22:25;12.60;99.90
25504;DHT22;13410;52.114;5.718;2023-02-03T14:24:54;12.50;99.90
25504;DHT22;13410;52.114;5.718;2023-02-03T14:27:23;12.40;99.90
25504;DHT22;13410;52.114;5.718;2023-02-03T14:35:21;12.40;99.90
25504;DHT22;13410;52.114;5.718;2023-02-03T14:38:16;12.60;99.90
25504;DHT22;13410;52.114;5.718;2023-02-03T14:43:31;12.60;99.90
25504;DHT22;13410;52.114;5.718;2023-02-03T14:51:35;12.60;99.90
25504;DHT22;13410;52.114;5.718;2023-02-03T14:59:53;12.20;99.90
25504;DHT22;13410;52.114;5.718;2023-02-03T15:02:23;12.20;99.90
25504;DHT22;13410;52.114;5.718;2023-02-03T15:07:43;12.20;99.90
25504;DHT22;13410;52.114;5.718;2023-02-03T15:10:14;12.10;99.90
25504;DHT22;13410;52.114;5.718;2023-02-03T15:12:51;12.10;99.90
25504;DHT22;13410;52.114;5.718;2023-02-03T15:15:29;12.20;99.90
25504;DHT22;13410;52.114;5.718;2023-02-03T15:17:56;12.30;99.90
25504;DHT22;13410;52.114;5.718;2023-02-03T15:20:34;12.20;99.90
25504;DHT22;13410;52.114;5.718;2023-02-03T15:23:01;12.30;99.90
25504;DHT22;13410;52.114;5.718;2023-02-03T15:25:30;12.20;99.90
25504;DHT22;13410;52.114;5.718;2023-02-03T15:28:11;12.40;99.90
25504;DHT22;13410;52.114;5.718;2023-02-03T15:30:37;12.40;99.90
25504;DHT22;13410;52.114;5.718;2023-02-03T15:33:07;12.40;99.90
25504;DHT22;13410;52.114;5.718;2023-02-03T15:35:34;12.50;99.90
25504;DHT22;13410;52.114;5.718;2023-02-03T15:38:05;12.60;99.90
25504;DHT22;13410;52.114;5.718;2023-02-03T15:40:37;12.60;99.90
25504;DHT22;13410;52.114;5.718;2023-02-03T15:43:18;12.60;99.90
25504;DHT22;13410;52.114;5.718;2023-02-03T15:46:05;12.50;99.90
25504;DHT22;13410;52.114;5.718;2023-02-03T15:48:44;12.50;99.90
25504;DHT22;13410;52.114;5.718;2023-02-03T15:51:59;12.70;99.90
25504;DHT22;13410;52.114;5.718;2023-02-03T15:54:12;12.80;99.90
25504;DHT22;13410;52.114;5.718;2023-02-03T15:56:46;12.80;99.90
25504;DHT22;13410;52.114;5.718;2023-02-03T15:59:30;12.80;99.90
25504;DHT22;13410;52.114;5.718;2023-02-03T16:01:56;12.80;99.90
25504;DHT22;13410;52.114;5.718;2023-02-03T16:04:23;12.70;99.90
25504;DHT22;13410;52.114;5.718;2023-02-03T16:06:51;12.50;99.90
25504;DHT22;13410;52.114;5.718;2023-02-03T16:09:39;12.70;99.90
25504;DHT22;13410;52.114;5.718;2023-02-03T16:12:23;12.60;99.90
25504;DHT22;13410;52.114;5.718;2023-02-03T16:14:49;12.60;99.90
25504;DHT22;13410;52.114;5.718;2023-02-03T16:17:28;12.70;99.90
25504;DHT22;13410;52.114;5.718;2023-02-03T16:22:41;12.90;99.90
25504;DHT22;13410;52.114;5.718;2023-02-03T16:25:13;13.10;99.90
25504;DHT22;13410;52.114;5.718;2023-02-03T16:27:43;13.10;99.90
25504;DHT22;13410;52.114;5.718;2023-02-03T16:33:04;12.80;99.90
25504;DHT22;13410;52.114;5.718;2023-02-03T16:35:59;12.90;99.90
25504;DHT22;13410;52.114;5.718;2023-02-03T16:38:45;12.70;99.90
25504;DHT22;13410;52.114;5.718;2023-02-03T16:41:30;12.40;99.90
25504;DHT22;13410;52.114;5.718;2023-02-03T16:44:14;12.50;99.90
25504;DHT22;13410;52.114;5.718;2023-02-03T16:46:58;12.40;99.90
25504;DHT22;13410;52.114;5.718;2023-02-03T16:49:42;12.40;99.90
25504;DHT22;13410;52.114;5.718;2023-02-03T16:52:26;12.50;99.90
25504;DHT22;13410;52.114;5.718;2023-02-03T16:54:53;12.60;99.90
25504;DHT22;13410;52.114;5.718;2023-02-03T16:57:18;12.70;99.90
25504;DHT22;13410;52.114;5.718;2023-02-03T16:59:44;12.50;99.90
25504;DHT22;13410;52.114;5.718;2023-02-03T17:02:10;12.20;99.90
25504;DHT22;13410;52.114;5.718;2023-02-03T17:04:35;12.20;99.90
25504;DHT22;13410;52.114;5.718;2023-02-03T17:07:01;12.20;99.90
25504;DHT22;13410;52.114;5.718;2023-02-03T17:09:29;12.30;99.90
25504;DHT22;13410;52.114;5.718;2023-02-03T17:12:02;12.40;99.90
25504;DHT22;13410;52.114;5.718;2023-02-03T17:14:28;12.40;99.90
25504;DHT22;13410;52.114;5.718;2023-02-03T17:16:53;12.40;99.90
25504;DHT22;13410;52.114;5.718;2023-02-03T17:19:19;12.40;99.90
25504;DHT22;13410;52.114;5.718;2023-02-03T17:21:44;12.20;99.90
25504;DHT22;13410;52.114;5.718;2023-02-03T17:24:12;12.00;99.90
25504;DHT22;13410;52.114;5.718;2023-02-03T17:26:37;12.00;99.90
25504;DHT22;13410;52.114;5.718;2023-02-03T17:29:03;12.00;99.90
25504;DHT22;13410;52.114;5.718;2023-02-03T17:31:29;11.90;99.90
25504;DHT22;13410;52.114;5.718;2023-02-03T17:33:55;11.80;99.90
25504;DHT22;13410;52.114;5.718;2023-02-03T17:36:22;11.80;99.90
25504;DHT22;13410;52.114;5.718;2023-02-03T17:38:52;11.90;99.90
25504;DHT22;13410;52.114;5.718;2023-02-03T17:41:22;11.90;99.90
25504;DHT22;13410;52.114;5.718;2023-02-03T17:43:48;11.90;99.90
25504;DHT22;13410;52.114;5.718;2023-02-03T17:46:17;11.90;99.90
25504;DHT22;13410;52.114;5.718;2023-02-03T17:48:43;11.80;99.90
25504;DHT22;13410;52.114;5.718;2023-02-03T17:53:38;11.70;99.90